createdAt,value
2017-10-15T00:00:03.943Z,18.37
2017-10-15T00:00:30.094Z,18.34
2017-10-15T00:00:56.267Z,18.35
2017-10-15T00:01:22.515Z,18.34
2017-10-15T00:01:48.636Z,18.33
2017-10-15T00:02:14.830Z,18.28
2017-10-15T00:02:40.973Z,18.29
2017-10-15T00:03:07.191Z,18.29
2017-10-15T00:03:33.355Z,18.25
2017-10-15T00:03:59.499Z,18.28
2017-10-15T00:04:25.663Z,18.26
2017-10-15T00:04:51.828Z,18.26
2017-10-15T00:05:18.051Z,18.28
2017-10-15T00:05:44.215Z,18.22
2017-10-15T00:06:10.376Z,18.33
2017-10-15T00:06:36.537Z,18.26
2017-10-15T00:07:02.714Z,18.18
2017-10-15T00:07:28.840Z,18.2
2017-10-15T00:07:55.022Z,18.23
2017-10-15T00:08:21.159Z,18.22
2017-10-15T00:08:47.434Z,18.28
2017-10-15T00:09:13.529Z,18.23
2017-10-15T00:09:39.766Z,18.2
2017-10-15T00:10:05.967Z,18.26
2017-10-15T00:10:32.117Z,18.19
2017-10-15T00:10:58.266Z,18.19
2017-10-15T00:11:24.435Z,18.16
2017-10-15T00:11:50.587Z,18.23
2017-10-15T00:12:16.776Z,18.26
2017-10-15T00:12:42.925Z,18.13
2017-10-15T00:13:09.086Z,18.18
2017-10-15T00:13:35.259Z,18.2
2017-10-15T00:14:01.404Z,18.22
2017-10-15T00:14:27.546Z,18.2
2017-10-15T00:14:53.712Z,18.07
2017-10-15T00:15:19.873Z,18.25
2017-10-15T00:15:46.027Z,18.2
2017-10-15T00:16:12.180Z,18.23
2017-10-15T00:16:38.339Z,18.23
2017-10-15T00:17:04.518Z,18.23
2017-10-15T00:17:30.662Z,18.22
2017-10-15T00:17:56.817Z,18.2
2017-10-15T00:18:22.980Z,18.2
2017-10-15T00:18:49.143Z,18.23
2017-10-15T00:19:15.309Z,18.16
2017-10-15T00:19:41.466Z,18.07
2017-10-15T00:20:07.642Z,18.19
2017-10-15T00:20:33.794Z,18.2
2017-10-15T00:20:59.984Z,18.13
2017-10-15T00:21:26.123Z,18.08
2017-10-15T00:21:52.367Z,18.2
2017-10-15T00:22:18.441Z,18.22
2017-10-15T00:22:44.637Z,18.13
2017-10-15T00:23:10.791Z,18.25
2017-10-15T00:23:36.963Z,18.25
2017-10-15T00:24:03.103Z,18.25
2017-10-15T00:24:29.271Z,18.16
2017-10-15T00:24:55.431Z,18.23
2017-10-15T00:25:21.585Z,18.33
2017-10-15T00:25:47.755Z,18.26
2017-10-15T00:26:13.907Z,18.26
2017-10-15T00:26:40.109Z,18.31
2017-10-15T00:27:06.246Z,18.26
2017-10-15T00:27:32.447Z,18.23
2017-10-15T00:27:58.587Z,18.28
2017-10-15T00:28:24.731Z,18.25
2017-10-15T00:28:50.902Z,18.26
2017-10-15T00:29:17.081Z,18.23
2017-10-15T00:29:43.249Z,18.23
2017-10-15T00:30:09.429Z,18.22
2017-10-15T00:30:35.580Z,18.28
2017-10-15T00:31:01.739Z,18.23
2017-10-15T00:31:27.961Z,18.22
2017-10-15T00:31:54.133Z,18.26
2017-10-15T00:32:20.347Z,18.35
2017-10-15T00:32:46.485Z,18.18
2017-10-15T00:33:12.665Z,18.22
2017-10-15T00:33:39.233Z,18.22
2017-10-15T00:34:05.453Z,18.19
2017-10-15T00:34:31.597Z,18.23
2017-10-15T00:34:57.750Z,18.2
2017-10-15T00:35:23.906Z,18.26
2017-10-15T00:35:50.069Z,18.18
2017-10-15T00:36:16.239Z,18.26
2017-10-15T00:36:42.414Z,18.22
2017-10-15T00:37:08.552Z,18.28
2017-10-15T00:37:34.705Z,18.2
2017-10-15T00:38:00.849Z,18.19
2017-10-15T00:38:27.000Z,18.15
2017-10-15T00:38:53.194Z,18.15
2017-10-15T00:39:19.349Z,18.08
2017-10-15T00:39:45.516Z,18.01
2017-10-15T00:40:11.887Z,18.04
2017-10-15T00:40:38.044Z,18.04
2017-10-15T00:41:04.205Z,18.03
2017-10-15T00:41:30.369Z,17.82
2017-10-15T00:41:56.526Z,17.89
2017-10-15T00:42:22.698Z,17.87
2017-10-15T00:42:48.886Z,17.82
2017-10-15T00:43:15.077Z,17.83
2017-10-15T00:43:41.217Z,17.79
2017-10-15T00:44:07.355Z,17.76
2017-10-15T00:44:33.526Z,17.83
2017-10-15T00:44:59.700Z,17.83
2017-10-15T00:45:25.858Z,17.78
2017-10-15T00:45:52.105Z,17.76
2017-10-15T00:46:18.263Z,17.79
2017-10-15T00:46:44.454Z,17.79
2017-10-15T00:47:10.670Z,17.82
2017-10-15T00:47:37.178Z,17.79
2017-10-15T00:48:03.424Z,17.78
2017-10-15T00:48:29.518Z,17.65
2017-10-15T00:48:55.679Z,17.68
2017-10-15T00:49:21.880Z,17.74
2017-10-15T00:49:47.981Z,17.78
2017-10-15T00:50:14.159Z,17.67
2017-10-15T00:50:40.310Z,17.63
2017-10-15T00:51:06.467Z,17.6
2017-10-15T00:51:32.614Z,17.57
2017-10-15T00:51:58.798Z,17.74
2017-10-15T00:52:24.957Z,17.65
2017-10-15T00:52:51.106Z,17.6
2017-10-15T00:53:17.354Z,17.64
2017-10-15T00:53:43.490Z,17.7
2017-10-15T00:54:09.691Z,17.64
2017-10-15T00:54:35.866Z,17.76
2017-10-15T00:55:02.048Z,17.65
2017-10-15T00:55:28.557Z,17.59
2017-10-15T00:55:54.735Z,17.65
2017-10-15T00:56:20.868Z,17.51
2017-10-15T00:56:47.076Z,17.68
2017-10-15T00:57:13.221Z,17.64
2017-10-15T00:57:39.374Z,17.67
2017-10-15T00:58:05.535Z,17.67
2017-10-15T00:58:31.689Z,17.64
2017-10-15T00:58:57.831Z,17.59
2017-10-15T00:59:23.975Z,17.68
2017-10-15T00:59:50.160Z,17.64
2017-10-15T01:00:16.318Z,17.68
2017-10-15T01:00:42.500Z,17.63
2017-10-15T01:01:08.664Z,17.68
2017-10-15T01:01:34.815Z,17.64
2017-10-15T01:02:00.973Z,17.56
2017-10-15T01:02:27.150Z,17.68
2017-10-15T01:02:53.281Z,17.65
2017-10-15T01:03:19.439Z,17.59
2017-10-15T01:03:45.600Z,17.68
2017-10-15T01:04:11.739Z,17.63
2017-10-15T01:04:37.895Z,17.59
2017-10-15T01:05:04.047Z,17.8
2017-10-15T01:05:30.228Z,17.79
2017-10-15T01:05:56.385Z,17.83
2017-10-15T01:06:22.529Z,17.79
2017-10-15T01:06:48.683Z,17.79
2017-10-15T01:07:14.825Z,17.74
2017-10-15T01:07:40.980Z,17.79
2017-10-15T01:08:07.133Z,17.72
2017-10-15T01:08:33.273Z,17.85
2017-10-15T01:08:59.419Z,17.87
2017-10-15T01:09:25.572Z,17.78
2017-10-15T01:09:51.747Z,17.78
2017-10-15T01:10:17.917Z,17.78
2017-10-15T01:10:44.082Z,17.82
2017-10-15T01:11:10.217Z,17.89
2017-10-15T01:11:36.377Z,17.82
2017-10-15T01:12:02.538Z,17.78
2017-10-15T01:12:28.678Z,17.85
2017-10-15T01:12:54.837Z,17.86
2017-10-15T01:13:20.988Z,17.86
2017-10-15T01:13:47.143Z,17.89
2017-10-15T01:14:13.286Z,17.83
2017-10-15T01:14:39.432Z,17.78
2017-10-15T01:15:05.585Z,17.78
2017-10-15T01:15:31.728Z,17.79
2017-10-15T01:15:57.892Z,17.85
2017-10-15T01:16:24.075Z,17.82
2017-10-15T01:16:50.237Z,17.78
2017-10-15T01:17:16.387Z,17.86
2017-10-15T01:17:42.535Z,17.87
2017-10-15T01:18:08.681Z,17.8
2017-10-15T01:18:34.866Z,17.83
2017-10-15T01:19:01.011Z,17.86
2017-10-15T01:19:27.153Z,17.85
2017-10-15T01:19:53.324Z,17.9
2017-10-15T01:20:19.464Z,17.86
2017-10-15T01:20:45.618Z,17.85
2017-10-15T01:21:11.779Z,17.87
2017-10-15T01:21:37.909Z,17.9
2017-10-15T01:22:04.060Z,17.85
2017-10-15T01:22:30.206Z,17.87
2017-10-15T01:22:56.366Z,17.9
2017-10-15T01:23:22.558Z,17.83
2017-10-15T01:23:48.703Z,17.87
2017-10-15T01:24:14.856Z,17.83
2017-10-15T01:24:41.009Z,17.8
2017-10-15T01:25:07.152Z,17.85
2017-10-15T01:25:33.313Z,17.85
2017-10-15T01:25:59.463Z,17.86
2017-10-15T01:26:25.607Z,17.83
2017-10-15T01:26:51.759Z,17.86
2017-10-15T01:27:17.905Z,17.92
2017-10-15T01:27:44.052Z,17.83
2017-10-15T01:28:10.210Z,17.86
2017-10-15T01:28:36.350Z,17.89
2017-10-15T01:29:02.503Z,17.87
2017-10-15T01:29:28.641Z,17.85
2017-10-15T01:29:54.792Z,17.86
2017-10-15T01:30:20.967Z,17.85
2017-10-15T01:30:47.125Z,17.76
2017-10-15T01:31:13.270Z,17.82
2017-10-15T01:31:39.419Z,17.78
2017-10-15T01:32:05.571Z,17.79
2017-10-15T01:32:31.748Z,17.78
2017-10-15T01:32:57.895Z,17.78
2017-10-15T01:33:24.041Z,17.8
2017-10-15T01:33:50.186Z,17.76
2017-10-15T01:34:16.336Z,17.85
2017-10-15T01:34:42.502Z,17.82
2017-10-15T01:35:08.630Z,17.8
2017-10-15T01:35:34.792Z,17.71
2017-10-15T01:36:00.926Z,17.79
2017-10-15T01:36:27.099Z,17.82
2017-10-15T01:36:53.247Z,17.78
2017-10-15T01:37:19.398Z,17.78
2017-10-15T01:37:45.547Z,17.79
2017-10-15T01:38:11.692Z,17.8
2017-10-15T01:38:37.842Z,17.8
2017-10-15T01:39:03.986Z,17.82
2017-10-15T01:39:30.128Z,17.72
2017-10-15T01:39:56.285Z,17.76
2017-10-15T01:40:22.424Z,17.78
2017-10-15T01:40:48.588Z,17.78
2017-10-15T01:41:14.725Z,17.79
2017-10-15T01:41:40.875Z,17.7
2017-10-15T01:42:07.049Z,17.63
2017-10-15T01:42:33.194Z,17.65
2017-10-15T01:42:59.338Z,17.64
2017-10-15T01:43:25.494Z,17.64
2017-10-15T01:43:51.645Z,17.59
2017-10-15T01:44:17.784Z,17.67
2017-10-15T01:44:43.934Z,17.59
2017-10-15T01:45:10.088Z,17.65
2017-10-15T01:45:36.256Z,17.65
2017-10-15T01:46:02.403Z,17.65
2017-10-15T01:46:28.553Z,17.59
2017-10-15T01:46:54.705Z,17.6
2017-10-15T01:47:20.856Z,17.6
2017-10-15T01:47:46.998Z,17.64
2017-10-15T01:48:13.149Z,17.57
2017-10-15T01:48:39.295Z,17.51
2017-10-15T01:49:05.497Z,17.51
2017-10-15T01:49:31.640Z,17.48
2017-10-15T01:49:57.794Z,17.48
2017-10-15T01:50:23.932Z,17.51
2017-10-15T01:50:50.077Z,17.49
2017-10-15T01:51:16.232Z,17.56
2017-10-15T01:51:42.377Z,17.48
2017-10-15T01:52:08.521Z,17.54
2017-10-15T01:52:34.666Z,17.44
2017-10-15T01:53:00.816Z,17.52
2017-10-15T01:53:26.957Z,17.52
2017-10-15T01:53:53.103Z,17.49
2017-10-15T01:54:19.257Z,17.49
2017-10-15T01:54:45.407Z,17.44
2017-10-15T01:55:11.553Z,17.44
2017-10-15T01:55:37.698Z,17.49
2017-10-15T01:56:03.844Z,17.48
2017-10-15T01:56:30.030Z,17.38
2017-10-15T01:56:56.178Z,17.54
2017-10-15T01:57:22.321Z,17.45
2017-10-15T01:57:48.470Z,17.46
2017-10-15T01:58:14.621Z,17.42
2017-10-15T01:58:40.765Z,17.41
2017-10-15T01:59:06.909Z,17.38
2017-10-15T01:59:33.059Z,17.29
2017-10-15T01:59:59.203Z,17.27
2017-10-15T02:00:25.353Z,17.26
2017-10-15T02:00:51.493Z,17.19
2017-10-15T02:01:17.641Z,17.19
2017-10-15T02:01:43.793Z,17.15
2017-10-15T02:02:09.933Z,17.16
2017-10-15T02:02:36.080Z,17.15
2017-10-15T02:03:02.260Z,17.14
2017-10-15T02:03:28.407Z,17.2
2017-10-15T02:03:54.561Z,17.14
2017-10-15T02:04:20.701Z,17.14
2017-10-15T02:04:46.854Z,17.15
2017-10-15T02:05:12.992Z,17.16
2017-10-15T02:05:39.140Z,17.12
2017-10-15T02:06:05.282Z,17.01
2017-10-15T02:06:31.458Z,17.02
2017-10-15T02:06:57.609Z,16.99
2017-10-15T02:07:23.757Z,17.02
2017-10-15T02:07:49.911Z,17.02
2017-10-15T02:08:16.061Z,17.01
2017-10-15T02:08:42.197Z,17.02
2017-10-15T02:09:08.341Z,17.04
2017-10-15T02:09:34.484Z,17.01
2017-10-15T02:10:00.630Z,17.04
2017-10-15T02:10:26.781Z,17.02
2017-10-15T02:10:52.954Z,16.99
2017-10-15T02:11:19.108Z,16.99
2017-10-15T02:11:45.265Z,16.96
2017-10-15T02:12:11.423Z,17.01
2017-10-15T02:12:37.573Z,16.99
2017-10-15T02:13:03.748Z,16.91
2017-10-15T02:13:29.940Z,17.05
2017-10-15T02:13:56.123Z,16.99
2017-10-15T02:14:22.268Z,17.08
2017-10-15T02:14:48.416Z,17.04
2017-10-15T02:15:14.560Z,16.94
2017-10-15T02:15:40.709Z,17.01
2017-10-15T02:16:06.858Z,16.97
2017-10-15T02:16:33.002Z,17.01
2017-10-15T02:16:59.151Z,17.05
2017-10-15T02:17:25.289Z,17.09
2017-10-15T02:17:51.443Z,17.06
2017-10-15T02:18:17.581Z,16.96
2017-10-15T02:18:43.721Z,17.08
2017-10-15T02:19:09.874Z,17.06
2017-10-15T02:19:36.017Z,16.99
2017-10-15T02:20:02.164Z,16.97
2017-10-15T02:20:28.337Z,17.01
2017-10-15T02:20:54.485Z,17.01
2017-10-15T02:21:20.625Z,17.04
2017-10-15T02:21:46.777Z,17.02
2017-10-15T02:22:12.925Z,17.01
2017-10-15T02:22:39.069Z,16.99
2017-10-15T02:23:05.219Z,16.9
2017-10-15T02:23:31.363Z,16.9
2017-10-15T02:23:57.531Z,16.9
2017-10-15T02:24:23.680Z,16.9
2017-10-15T02:24:49.832Z,16.94
2017-10-15T02:25:15.983Z,16.91
2017-10-15T02:25:42.129Z,16.79
2017-10-15T02:26:08.269Z,16.87
2017-10-15T02:26:34.416Z,16.94
2017-10-15T02:27:00.568Z,16.96
2017-10-15T02:27:26.711Z,17.04
2017-10-15T02:27:52.858Z,16.97
2017-10-15T02:28:19.001Z,16.97
2017-10-15T02:28:45.150Z,16.97
2017-10-15T02:29:11.290Z,17.01
2017-10-15T02:29:37.443Z,16.96
2017-10-15T02:30:03.615Z,16.86
2017-10-15T02:30:29.740Z,16.78
2017-10-15T02:30:55.886Z,16.81
2017-10-15T02:31:22.037Z,16.74
2017-10-15T02:31:48.176Z,16.75
2017-10-15T02:32:14.330Z,16.74
2017-10-15T02:32:40.477Z,16.78
2017-10-15T02:33:06.613Z,16.68
2017-10-15T02:33:32.792Z,16.76
2017-10-15T02:33:58.944Z,16.76
2017-10-15T02:34:25.087Z,16.78
2017-10-15T02:34:51.232Z,16.81
2017-10-15T02:35:17.375Z,16.78
2017-10-15T02:35:43.528Z,16.78
2017-10-15T02:36:09.702Z,16.81
2017-10-15T02:36:35.844Z,16.75
2017-10-15T02:37:01.997Z,16.76
2017-10-15T02:37:28.137Z,16.79
2017-10-15T02:37:54.291Z,16.79
2017-10-15T02:38:20.434Z,16.83
2017-10-15T02:38:46.576Z,16.83
2017-10-15T02:39:12.728Z,16.84
2017-10-15T02:39:38.876Z,16.78
2017-10-15T02:40:05.019Z,16.79
2017-10-15T02:40:31.170Z,16.78
2017-10-15T02:40:57.311Z,16.84
2017-10-15T02:41:23.454Z,16.78
2017-10-15T02:41:49.602Z,16.84
2017-10-15T02:42:15.746Z,16.87
2017-10-15T02:42:41.899Z,16.87
2017-10-15T02:43:08.046Z,16.78
2017-10-15T02:43:34.187Z,16.9
2017-10-15T02:44:00.336Z,16.87
2017-10-15T02:44:26.481Z,16.87
2017-10-15T02:44:52.628Z,16.84
2017-10-15T02:45:18.775Z,16.9
2017-10-15T02:45:44.918Z,16.94
2017-10-15T02:46:11.087Z,16.89
2017-10-15T02:46:37.225Z,16.9
2017-10-15T02:47:03.380Z,16.89
2017-10-15T02:47:29.534Z,16.9
2017-10-15T02:47:55.679Z,16.84
2017-10-15T02:48:21.857Z,16.94
2017-10-15T02:48:47.996Z,16.89
2017-10-15T02:49:14.149Z,16.93
2017-10-15T02:49:40.291Z,16.9
2017-10-15T02:50:06.440Z,16.86
2017-10-15T02:50:32.584Z,16.79
2017-10-15T02:50:58.728Z,16.84
2017-10-15T02:51:24.876Z,16.71
2017-10-15T02:51:51.043Z,16.71
2017-10-15T02:52:17.198Z,16.71
2017-10-15T02:52:43.336Z,16.72
2017-10-15T02:53:09.506Z,16.71
2017-10-15T02:53:35.660Z,16.65
2017-10-15T02:54:01.828Z,16.72
2017-10-15T02:54:27.975Z,16.71
2017-10-15T02:54:54.130Z,16.6
2017-10-15T02:55:20.277Z,16.69
2017-10-15T02:55:46.421Z,16.64
2017-10-15T02:56:12.569Z,16.68
2017-10-15T02:56:38.720Z,16.71
2017-10-15T02:57:04.872Z,16.72
2017-10-15T02:57:31.014Z,16.74
2017-10-15T02:57:57.166Z,16.72
2017-10-15T02:58:23.308Z,16.78
2017-10-15T02:58:49.454Z,16.65
2017-10-15T02:59:15.605Z,16.72
2017-10-15T02:59:41.752Z,16.65
2017-10-15T03:00:07.925Z,16.75
2017-10-15T03:00:34.067Z,16.68
2017-10-15T03:01:00.221Z,16.66
2017-10-15T03:01:26.369Z,16.68
2017-10-15T03:01:52.519Z,16.68
2017-10-15T03:02:18.666Z,16.65
2017-10-15T03:02:44.812Z,16.66
2017-10-15T03:03:10.958Z,16.71
2017-10-15T03:03:37.105Z,16.69
2017-10-15T03:04:03.253Z,16.65
2017-10-15T03:04:29.398Z,16.71
2017-10-15T03:04:55.568Z,16.69
2017-10-15T03:05:21.721Z,16.75
2017-10-15T03:05:47.857Z,16.71
2017-10-15T03:06:14.010Z,16.66
2017-10-15T03:06:40.161Z,16.68
2017-10-15T03:07:06.300Z,16.66
2017-10-15T03:07:32.452Z,16.75
2017-10-15T03:07:58.598Z,16.75
2017-10-15T03:08:24.752Z,16.57
2017-10-15T03:08:50.940Z,16.68
2017-10-15T03:09:17.067Z,16.72
2017-10-15T03:09:43.215Z,16.72
2017-10-15T03:10:09.361Z,16.68
2017-10-15T03:10:35.514Z,16.66
2017-10-15T03:11:01.665Z,16.68
2017-10-15T03:11:27.808Z,16.68
2017-10-15T03:11:53.951Z,16.65
2017-10-15T03:12:20.097Z,16.66
2017-10-15T03:12:46.236Z,16.61
2017-10-15T03:13:12.387Z,16.58
2017-10-15T03:13:38.536Z,16.57
2017-10-15T03:14:04.684Z,16.61
2017-10-15T03:14:30.828Z,16.53
2017-10-15T03:14:56.982Z,16.56
2017-10-15T03:15:23.120Z,16.51
2017-10-15T03:15:49.270Z,16.42
2017-10-15T03:16:15.420Z,16.6
2017-10-15T03:16:41.557Z,16.5
2017-10-15T03:17:07.726Z,16.5
2017-10-15T03:17:33.875Z,16.36
2017-10-15T03:18:00.026Z,16.42
2017-10-15T03:18:26.175Z,16.49
2017-10-15T03:18:52.331Z,16.39
2017-10-15T03:19:18.472Z,16.49
2017-10-15T03:19:44.617Z,16.49
2017-10-15T03:20:10.767Z,16.49
2017-10-15T03:20:36.916Z,16.51
2017-10-15T03:21:03.056Z,16.53
2017-10-15T03:21:29.230Z,16.56
2017-10-15T03:21:55.373Z,16.46
2017-10-15T03:22:21.527Z,16.5
2017-10-15T03:22:47.669Z,16.5
2017-10-15T03:23:13.847Z,16.54
2017-10-15T03:23:39.990Z,16.53
2017-10-15T03:24:06.138Z,16.46
2017-10-15T03:24:32.290Z,16.49
2017-10-15T03:24:58.456Z,16.47
2017-10-15T03:25:24.609Z,16.5
2017-10-15T03:25:50.757Z,16.5
2017-10-15T03:26:16.904Z,16.53
2017-10-15T03:26:43.050Z,16.49
2017-10-15T03:27:09.195Z,16.5
2017-10-15T03:27:35.346Z,16.49
2017-10-15T03:28:01.490Z,16.47
2017-10-15T03:28:27.641Z,16.39
2017-10-15T03:28:53.781Z,16.38
2017-10-15T03:29:19.926Z,16.32
2017-10-15T03:29:46.081Z,16.29
2017-10-15T03:30:12.230Z,16.26
2017-10-15T03:30:38.399Z,16.26
2017-10-15T03:31:04.546Z,16.2
2017-10-15T03:31:30.697Z,16.17
2017-10-15T03:31:56.837Z,16.15
2017-10-15T03:32:22.985Z,16.17
2017-10-15T03:32:49.162Z,16.13
2017-10-15T03:33:15.307Z,16.23
2017-10-15T03:33:41.453Z,16.24
2017-10-15T03:34:07.600Z,16.31
2017-10-15T03:34:33.748Z,16.26
2017-10-15T03:34:59.893Z,16.28
2017-10-15T03:35:26.044Z,16.28
2017-10-15T03:35:52.185Z,16.29
2017-10-15T03:36:18.337Z,16.33
2017-10-15T03:36:44.484Z,16.26
2017-10-15T03:37:10.640Z,16.26
2017-10-15T03:37:36.776Z,16.23
2017-10-15T03:38:02.919Z,16.31
2017-10-15T03:38:29.071Z,16.29
2017-10-15T03:38:55.217Z,16.26
2017-10-15T03:39:21.358Z,16.26
2017-10-15T03:39:47.506Z,16.29
2017-10-15T03:40:13.660Z,16.38
2017-10-15T03:40:39.800Z,16.29
2017-10-15T03:41:05.958Z,16.31
2017-10-15T03:41:32.095Z,16.24
2017-10-15T03:41:58.244Z,16.28
2017-10-15T03:42:24.382Z,16.26
2017-10-15T03:42:50.535Z,16.29
2017-10-15T03:43:16.680Z,16.28
2017-10-15T03:43:42.839Z,16.26
2017-10-15T03:44:08.989Z,16.29
2017-10-15T03:44:35.161Z,16.36
2017-10-15T03:45:01.306Z,16.32
2017-10-15T03:45:27.458Z,16.31
2017-10-15T03:45:53.599Z,16.33
2017-10-15T03:46:19.753Z,16.31
2017-10-15T03:46:45.899Z,16.32
2017-10-15T03:47:12.057Z,16.26
2017-10-15T03:47:38.189Z,16.32
2017-10-15T03:48:04.341Z,16.31
2017-10-15T03:48:30.495Z,16.28
2017-10-15T03:48:56.636Z,16.26
2017-10-15T03:49:22.804Z,16.36
2017-10-15T03:49:48.954Z,16.39
2017-10-15T03:50:15.097Z,16.39
2017-10-15T03:50:41.247Z,16.28
2017-10-15T03:51:07.415Z,16.29
2017-10-15T03:51:33.563Z,16.26
2017-10-15T03:51:59.707Z,16.28
2017-10-15T03:52:25.861Z,16.31
2017-10-15T03:52:52.005Z,16.31
2017-10-15T03:53:18.148Z,16.24
2017-10-15T03:53:44.291Z,16.26
2017-10-15T03:54:10.440Z,16.21
2017-10-15T03:54:36.583Z,16.31
2017-10-15T03:55:02.735Z,16.26
2017-10-15T03:55:28.881Z,16.1
2017-10-15T03:55:55.039Z,16.15
2017-10-15T03:56:21.188Z,16.12
2017-10-15T03:56:47.328Z,16.15
2017-10-15T03:57:13.470Z,16.17
2017-10-15T03:57:39.619Z,16.2
2017-10-15T03:58:05.783Z,16.16
2017-10-15T03:58:31.915Z,16.16
2017-10-15T03:58:58.057Z,16.13
2017-10-15T03:59:24.201Z,16.16
2017-10-15T03:59:50.349Z,16.16
2017-10-15T04:00:16.500Z,16.17
2017-10-15T04:00:42.642Z,16.15
2017-10-15T04:01:08.788Z,16.13
2017-10-15T04:01:34.948Z,16.16
2017-10-15T04:02:01.118Z,16.16
2017-10-15T04:02:27.263Z,16.1
2017-10-15T04:02:53.425Z,16.16
2017-10-15T04:03:19.576Z,16.13
2017-10-15T04:03:45.721Z,16.1
2017-10-15T04:04:11.889Z,16.09
2017-10-15T04:04:38.035Z,16.1
2017-10-15T04:05:04.177Z,16.09
2017-10-15T04:05:30.358Z,16.08
2017-10-15T04:05:56.522Z,16.17
2017-10-15T04:06:22.677Z,16.09
2017-10-15T04:06:48.820Z,16.09
2017-10-15T04:07:15.022Z,16.09
2017-10-15T04:07:41.193Z,16.09
2017-10-15T04:08:07.313Z,16.12
2017-10-15T04:08:33.461Z,16.08
2017-10-15T04:08:59.608Z,16.13
2017-10-15T04:09:25.748Z,16.05
2017-10-15T04:09:51.901Z,16.1
2017-10-15T04:10:18.055Z,16.2
2017-10-15T04:10:44.190Z,16.09
2017-10-15T04:11:10.340Z,16.09
2017-10-15T04:11:36.482Z,16.12
2017-10-15T04:12:02.628Z,16.16
2017-10-15T04:12:28.778Z,16.08
2017-10-15T04:12:54.920Z,16.1
2017-10-15T04:13:21.070Z,16.04
2017-10-15T04:13:47.221Z,16.04
2017-10-15T04:14:13.362Z,16.04
2017-10-15T04:14:39.515Z,16
2017-10-15T04:15:05.655Z,15.98
2017-10-15T04:15:31.795Z,15.97
2017-10-15T04:15:57.952Z,15.97
2017-10-15T04:16:24.132Z,15.98
2017-10-15T04:16:50.322Z,15.92
2017-10-15T04:17:16.496Z,15.9
2017-10-15T04:17:42.636Z,15.91
2017-10-15T04:18:08.783Z,15.91
2017-10-15T04:18:34.931Z,15.8
2017-10-15T04:19:01.104Z,15.73
2017-10-15T04:19:27.249Z,15.82
2017-10-15T04:19:53.400Z,15.83
2017-10-15T04:20:19.546Z,15.8
2017-10-15T04:20:45.691Z,15.79
2017-10-15T04:21:11.832Z,15.86
2017-10-15T04:21:37.985Z,15.86
2017-10-15T04:22:04.138Z,15.86
2017-10-15T04:22:30.288Z,15.9
2017-10-15T04:22:56.427Z,15.83
2017-10-15T04:23:22.567Z,15.83
2017-10-15T04:23:48.739Z,15.91
2017-10-15T04:24:14.877Z,15.97
2017-10-15T04:24:41.039Z,15.97
2017-10-15T04:25:07.182Z,15.97
2017-10-15T04:25:33.333Z,16
2017-10-15T04:25:59.473Z,16.01
2017-10-15T04:26:25.626Z,16
2017-10-15T04:26:51.786Z,15.92
2017-10-15T04:27:17.936Z,16.05
2017-10-15T04:27:44.083Z,16
2017-10-15T04:28:10.227Z,16.05
2017-10-15T04:28:36.379Z,16.02
2017-10-15T04:29:02.525Z,16.08
2017-10-15T04:29:28.671Z,16.12
2017-10-15T04:29:54.815Z,16.02
2017-10-15T04:30:20.965Z,16.01
2017-10-15T04:30:47.137Z,16.05
2017-10-15T04:31:13.286Z,16.08
2017-10-15T04:31:39.433Z,16.04
2017-10-15T04:32:05.579Z,16.01
2017-10-15T04:32:31.727Z,16.1
2017-10-15T04:32:57.872Z,16.02
2017-10-15T04:33:24.021Z,16.08
2017-10-15T04:33:50.170Z,15.91
2017-10-15T04:34:16.309Z,16.01
2017-10-15T04:34:42.458Z,16.02
2017-10-15T04:35:08.609Z,16.05
2017-10-15T04:35:34.779Z,15.97
2017-10-15T04:36:00.955Z,15.98
2017-10-15T04:36:27.098Z,15.91
2017-10-15T04:36:53.248Z,15.9
2017-10-15T04:37:19.397Z,15.86
2017-10-15T04:37:45.545Z,15.9
2017-10-15T04:38:11.688Z,15.84
2017-10-15T04:38:37.841Z,15.79
2017-10-15T04:39:03.978Z,15.82
2017-10-15T04:39:30.126Z,15.73
2017-10-15T04:39:56.277Z,15.77
2017-10-15T04:40:22.446Z,15.82
2017-10-15T04:40:48.599Z,15.77
2017-10-15T04:41:14.753Z,15.72
2017-10-15T04:41:40.900Z,15.75
2017-10-15T04:42:07.040Z,15.7
2017-10-15T04:42:33.195Z,15.72
2017-10-15T04:42:59.332Z,15.72
2017-10-15T04:43:25.478Z,15.65
2017-10-15T04:43:51.628Z,15.75
2017-10-15T04:44:17.769Z,15.75
2017-10-15T04:44:43.920Z,15.77
2017-10-15T04:45:10.057Z,15.73
2017-10-15T04:45:36.213Z,15.72
2017-10-15T04:46:02.356Z,15.7
2017-10-15T04:46:28.507Z,15.8
2017-10-15T04:46:54.676Z,15.84
2017-10-15T04:47:20.822Z,15.79
2017-10-15T04:47:46.965Z,15.79
2017-10-15T04:48:13.110Z,15.82
2017-10-15T04:48:39.249Z,15.84
2017-10-15T04:49:05.404Z,15.83
2017-10-15T04:49:31.570Z,15.72
2017-10-15T04:49:57.724Z,15.67
2017-10-15T04:50:23.866Z,15.65
2017-10-15T04:50:50.018Z,15.76
2017-10-15T04:51:16.164Z,15.77
2017-10-15T04:51:42.306Z,15.77
2017-10-15T04:52:08.458Z,15.9
2017-10-15T04:52:34.602Z,15.86
2017-10-15T04:53:00.775Z,15.9
2017-10-15T04:53:26.918Z,15.88
2017-10-15T04:53:53.068Z,15.9
2017-10-15T04:54:19.208Z,15.9
2017-10-15T04:54:45.360Z,15.83
2017-10-15T04:55:11.507Z,15.9
2017-10-15T04:55:37.658Z,15.9
2017-10-15T04:56:03.801Z,15.95
2017-10-15T04:56:29.953Z,15.84
2017-10-15T04:56:56.102Z,15.9
2017-10-15T04:57:22.237Z,15.86
2017-10-15T04:57:48.386Z,15.95
2017-10-15T04:58:14.537Z,15.95
2017-10-15T04:58:40.682Z,15.88
2017-10-15T04:59:06.825Z,15.88
2017-10-15T04:59:32.972Z,15.86
2017-10-15T04:59:59.121Z,15.83
2017-10-15T05:00:25.267Z,15.9
2017-10-15T05:00:51.409Z,15.91
2017-10-15T05:01:17.560Z,15.94
2017-10-15T05:01:43.703Z,15.88
2017-10-15T05:02:09.882Z,15.84
2017-10-15T05:02:36.023Z,15.88
2017-10-15T05:03:02.175Z,15.86
2017-10-15T05:03:28.320Z,15.86
2017-10-15T05:03:54.467Z,15.86
2017-10-15T05:04:20.615Z,15.9
2017-10-15T05:04:46.776Z,15.88
2017-10-15T05:05:12.904Z,15.9
2017-10-15T05:05:39.056Z,15.84
2017-10-15T05:06:05.207Z,15.82
2017-10-15T05:06:31.348Z,15.8
2017-10-15T05:06:57.519Z,15.83
2017-10-15T05:07:23.640Z,15.82
2017-10-15T05:07:49.793Z,15.8
2017-10-15T05:08:15.938Z,15.76
2017-10-15T05:08:42.082Z,15.68
2017-10-15T05:09:08.232Z,15.73
2017-10-15T05:09:34.380Z,15.68
2017-10-15T05:10:00.548Z,15.67
2017-10-15T05:10:26.697Z,15.68
2017-10-15T05:10:52.846Z,15.68
2017-10-15T05:11:19.019Z,15.73
2017-10-15T05:11:45.163Z,15.62
2017-10-15T05:12:11.317Z,15.64
2017-10-15T05:12:37.457Z,15.65
2017-10-15T05:13:03.632Z,15.67
2017-10-15T05:13:29.779Z,15.65
2017-10-15T05:13:55.933Z,15.67
2017-10-15T05:14:22.075Z,15.73
2017-10-15T05:14:48.221Z,15.62
2017-10-15T05:15:14.374Z,15.51
2017-10-15T05:15:40.521Z,15.59
2017-10-15T05:16:06.687Z,15.55
2017-10-15T05:16:32.832Z,15.59
2017-10-15T05:16:58.985Z,15.57
2017-10-15T05:17:25.130Z,15.52
2017-10-15T05:17:51.275Z,15.57
2017-10-15T05:18:17.421Z,15.49
2017-10-15T05:18:43.564Z,15.55
2017-10-15T05:19:09.740Z,15.52
2017-10-15T05:19:35.867Z,15.44
2017-10-15T05:20:02.011Z,15.43
2017-10-15T05:20:28.176Z,15.42
2017-10-15T05:20:54.325Z,15.39
2017-10-15T05:21:20.471Z,15.29
2017-10-15T05:21:46.618Z,15.28
2017-10-15T05:22:12.762Z,15.31
2017-10-15T05:22:38.900Z,15.28
2017-10-15T05:23:05.056Z,15.33
2017-10-15T05:23:31.203Z,15.37
2017-10-15T05:23:57.347Z,15.29
2017-10-15T05:24:23.493Z,15.31
2017-10-15T05:24:49.646Z,15.35
2017-10-15T05:25:15.794Z,15.15
2017-10-15T05:25:41.940Z,15.15
2017-10-15T05:26:08.085Z,15.11
2017-10-15T05:26:34.227Z,15.27
2017-10-15T05:27:00.385Z,15.31
2017-10-15T05:27:26.519Z,15.21
2017-10-15T05:27:52.663Z,15.22
2017-10-15T05:28:18.816Z,15.11
2017-10-15T05:28:44.969Z,15.15
2017-10-15T05:29:11.109Z,15.24
2017-10-15T05:29:37.255Z,15.27
2017-10-15T05:30:03.427Z,15.25
2017-10-15T05:30:29.576Z,15.25
2017-10-15T05:30:55.716Z,15.27
2017-10-15T05:31:21.870Z,15.35
2017-10-15T05:31:48.011Z,15.29
2017-10-15T05:32:14.164Z,15.31
2017-10-15T05:32:40.305Z,15.33
2017-10-15T05:33:06.458Z,15.33
2017-10-15T05:33:32.598Z,15.29
2017-10-15T05:33:58.737Z,15.31
2017-10-15T05:34:24.881Z,15.33
2017-10-15T05:34:51.033Z,15.42
2017-10-15T05:35:17.177Z,15.4
2017-10-15T05:35:43.346Z,15.39
2017-10-15T05:36:09.494Z,15.36
2017-10-15T05:36:35.633Z,15.43
2017-10-15T05:37:01.785Z,15.42
2017-10-15T05:37:27.932Z,15.39
2017-10-15T05:37:54.075Z,15.43